CheckWX is a tool to help pilots better visualize weather data.  It is not intended as a substitute for an official pre-flight weather briefing.

08:12:39 UTC

DTTJ METAR
Djerba Zarzis International Airport
Djerba, Tunisia
Current

13 mins ago

DTTJ 220800Z 36010KT 9999 FEW020 13/07 Q1028 NOSIG
Observed
Feb-22 @ 08:00 UTC
Wind
  • 360° at 10 KTS
Visibility
10,000+ meters
Flight Rules
VFR
Cloud Levels
  • Few at 2,000' AGL
Temperature
13°C / 55°F
Dewpoint
C / 45°F
Humidity
67%
Altimeter
30.35" Hg
Pressure
1027.92 hPa
Previous

43 mins ago

DTTJ 220730Z 36009KT 8000 FEW020 13/07 Q1028 NOSIG
Observed
Feb-22 @ 07:30 UTC
Wind
  • 360° at 9 KTS
Visibility
7,998 meters
Flight Rules
MVFR
Cloud Levels
  • Few at 2,000' AGL
Temperature
13°C / 55°F
Dewpoint
C / 45°F
Humidity
67%
Altimeter
30.35" Hg
Pressure
1027.92 hPa
Previous

1 hour ago

DTTJ 220700Z 36009KT 8000 FEW020 12/07 Q1028 NOSIG
Observed
Feb-22 @ 07:00 UTC
Wind
  • 360° at 9 KTS
Visibility
7,998 meters
Flight Rules
MVFR
Cloud Levels
  • Few at 2,000' AGL
Temperature
12°C / 54°F
Dewpoint
C / 45°F
Humidity
72%
Altimeter
30.35" Hg
Pressure
1027.92 hPa